createdAt,value
2023-01-10T00:01:58.576Z,101199.56
2023-01-10T00:04:30.009Z,101201.75
2023-01-10T00:06:56.798Z,101208.56
2023-01-10T00:09:23.364Z,101224.63
2023-01-10T00:12:08.577Z,101234.28
2023-01-10T00:14:35.272Z,101232.69
2023-01-10T00:17:03.587Z,101238.97
2023-01-10T00:19:31.013Z,101243.97
2023-01-10T00:21:58.324Z,101244.56
2023-01-10T00:24:24.819Z,101253.53
2023-01-10T00:26:51.862Z,101257.03
2023-01-10T00:29:26.157Z,101269.88
2023-01-10T00:31:52.724Z,101258.41
2023-01-10T00:34:19.462Z,101263.19
2023-01-10T00:36:47.953Z,101265.16
2023-01-10T00:39:15.773Z,101270.25
2023-01-10T00:42:00.726Z,101275.63
2023-01-10T00:44:27.267Z,101272.66
2023-01-10T00:46:54.269Z,101276.44
2023-01-10T00:49:20.917Z,101277.44
2023-01-10T00:51:47.459Z,101285.81
2023-01-10T00:54:14.756Z,101280.59
2023-01-10T00:56:41.539Z,101287.00
2023-01-10T00:59:08.574Z,101274.34
2023-01-10T01:01:35.354Z,101285.59
2023-01-10T01:04:01.998Z,101292.38
2023-01-10T01:06:28.592Z,101285.41
2023-01-10T01:08:55.081Z,101288.69
2023-01-10T01:11:21.523Z,101289.78
2023-01-10T01:13:47.986Z,101295.47
2023-01-10T01:16:14.574Z,101288.81
2023-01-10T01:18:41.199Z,101297.75
2023-01-10T01:21:08.474Z,101304.84
2023-01-10T01:23:35.987Z,101303.03
2023-01-10T01:26:02.543Z,101314.59
2023-01-10T01:28:29.044Z,101307.03
2023-01-10T01:30:55.571Z,101315.88
2023-01-10T01:33:22.287Z,101321.28
2023-01-10T01:35:50.466Z,101318.88
2023-01-10T01:38:18.025Z,101321.28
2023-01-10T01:40:45.034Z,101332.75
2023-01-10T01:43:23.539Z,101335.13
2023-01-10T01:45:50.901Z,101342.63
2023-01-10T01:48:30.132Z,101342.00
2023-01-10T01:51:16.403Z,101347.59
2023-01-10T01:54:16.255Z,101343.41
2023-01-10T01:56:51.038Z,101353.78
2023-01-10T01:59:28.250Z,101346.72
2023-01-10T02:02:02.522Z,101346.44
2023-01-10T02:04:41.103Z,101352.09
2023-01-10T02:07:10.189Z,101358.56
2023-01-10T02:09:42.795Z,101363.38
2023-01-10T02:12:10.121Z,101359.09
2023-01-10T02:14:38.554Z,101366.88
2023-01-10T02:17:08.538Z,101371.16
2023-01-10T02:19:56.050Z,101371.94
2023-01-10T02:22:40.255Z,101377.81
2023-01-10T02:25:21.706Z,101378.63
2023-01-10T02:28:25.477Z,101377.50
2023-01-10T02:31:14.366Z,101375.34
2023-01-10T02:34:01.592Z,101383.41
2023-01-10T02:36:49.490Z,101386.91
2023-01-10T02:39:23.766Z,101388.59
2023-01-10T02:41:59.562Z,101377.34
2023-01-10T02:44:37.526Z,101377.34
2023-01-10T02:47:04.941Z,101384.63
2023-01-10T02:49:31.376Z,101379.72
2023-01-10T02:51:57.891Z,101374.81
2023-01-10T02:54:30.733Z,101376.41
2023-01-10T02:57:29.759Z,101379.63
2023-01-10T02:59:58.973Z,101387.72
2023-01-10T03:02:51.466Z,101386.22
2023-01-10T03:05:41.274Z,101394.47
2023-01-10T03:08:26.537Z,101410.63
2023-01-10T03:11:01.538Z,101409.03
2023-01-10T03:13:43.287Z,101410.34
2023-01-10T03:16:15.666Z,101409.25
2023-01-10T03:19:00.615Z,101421.63
2023-01-10T03:21:29.379Z,101422.09
2023-01-10T03:24:05.814Z,101422.91
2023-01-10T03:26:58.332Z,101426.69
2023-01-10T03:29:36.869Z,101428.28
2023-01-10T03:32:09.343Z,101439.06
2023-01-10T03:34:36.474Z,101445.25
2023-01-10T03:37:14.151Z,101446.03
2023-01-10T03:39:52.893Z,101444.34
2023-01-10T03:42:53.173Z,101455.94
2023-01-10T03:45:28.011Z,101454.03
2023-01-10T03:47:56.382Z,101454.59
2023-01-10T03:50:25.762Z,101449.53
2023-01-10T03:52:52.441Z,101453.63
2023-01-10T03:55:23.346Z,101451.72
2023-01-10T03:57:49.923Z,101465.50
2023-01-10T04:00:17.226Z,101462.00
2023-01-10T04:02:44.408Z,101463.91
2023-01-10T04:05:11.203Z,101464.69
2023-01-10T04:07:37.795Z,101471.97
2023-01-10T04:10:05.551Z,101475.78
2023-01-10T04:12:32.039Z,101474.97
2023-01-10T04:14:58.497Z,101476.56
2023-01-10T04:17:24.944Z,101480.84
2023-01-10T04:19:51.420Z,101483.06
2023-01-10T04:22:17.991Z,101491.94
2023-01-10T04:24:44.457Z,101489.50
2023-01-10T04:27:10.974Z,101496.00
2023-01-10T04:29:37.594Z,101507.78
2023-01-10T04:32:04.205Z,101502.97
2023-01-10T04:34:30.658Z,101513.75
2023-01-10T04:36:57.124Z,101510.47
2023-01-10T04:39:23.616Z,101517.44
2023-01-10T04:41:50.093Z,101522.03
2023-01-10T04:44:16.657Z,101521.03
2023-01-10T04:46:43.161Z,101525.13
2023-01-10T04:49:10.387Z,101520.84
2023-01-10T04:51:36.851Z,101528.00
2023-01-10T04:54:03.448Z,101527.72
2023-01-10T04:56:29.914Z,101527.44
2023-01-10T04:58:56.479Z,101536.81
2023-01-10T05:01:24.971Z,101531.41
2023-01-10T05:03:53.822Z,101534.91
2023-01-10T05:06:21.528Z,101530.00
2023-01-10T05:08:48.173Z,101526.25
2023-01-10T05:11:14.888Z,101526.25
2023-01-10T05:13:42.199Z,101530.81
2023-01-10T05:16:08.806Z,101532.50
2023-01-10T05:18:35.344Z,101545.47
2023-01-10T05:21:10.589Z,101553.06
2023-01-10T05:23:38.661Z,101554.75
2023-01-10T05:26:10.619Z,101562.63
2023-01-10T05:28:38.219Z,101564.25
2023-01-10T05:31:09.334Z,101569.16
2023-01-10T05:33:35.894Z,101579.63
2023-01-10T05:36:04.282Z,101576.66
2023-01-10T05:38:31.373Z,101580.66
2023-01-10T05:40:59.201Z,101586.56
2023-01-10T05:43:26.818Z,101577.97
2023-01-10T05:45:53.458Z,101588.44
2023-01-10T05:48:20.185Z,101590.03
2023-01-10T05:50:46.915Z,101593.22
2023-01-10T05:53:13.358Z,101593.22
2023-01-10T05:55:40.451Z,101595.94
2023-01-10T05:58:06.944Z,101601.00
2023-01-10T06:00:33.409Z,101607.72
2023-01-10T06:02:59.845Z,101595.31
2023-01-10T06:05:26.329Z,101604.50
2023-01-10T06:07:52.850Z,101595.13
2023-01-10T06:10:19.318Z,101613.47
2023-01-10T06:12:45.978Z,101626.63
2023-01-10T06:15:12.524Z,101615.56
2023-01-10T06:17:38.994Z,101616.66
2023-01-10T06:20:06.386Z,101622.34
2023-01-10T06:22:32.883Z,101631.53
2023-01-10T06:25:01.577Z,101634.41
2023-01-10T06:27:28.721Z,101625.84
2023-01-10T06:29:55.182Z,101629.63
2023-01-10T06:32:21.607Z,101627.75
2023-01-10T06:34:48.102Z,101634.22
2023-01-10T06:37:14.781Z,101629.63
2023-01-10T06:39:41.321Z,101644.69
2023-01-10T06:42:07.795Z,101649.56
2023-01-10T06:44:34.234Z,101654.16
2023-01-10T06:47:00.739Z,101656.06
2023-01-10T06:49:27.263Z,101653.63
2023-01-10T06:51:53.816Z,101657.44
2023-01-10T06:54:20.318Z,101659.59
2023-01-10T06:56:49.577Z,101662.88
2023-01-10T06:59:16.288Z,101652.16
2023-01-10T07:01:42.854Z,101663.81
2023-01-10T07:04:09.397Z,101668.47
2023-01-10T07:06:40.060Z,101671.81
2023-01-10T07:09:06.614Z,101678.66
2023-01-10T07:11:34.684Z,101672.81
2023-01-10T07:14:01.645Z,101672.59
2023-01-10T07:16:28.339Z,101681.25
2023-01-10T07:18:54.883Z,101686.13
2023-01-10T07:21:21.396Z,101694.47
2023-01-10T07:23:50.146Z,101706.84
2023-01-10T07:26:18.921Z,101714.34
2023-01-10T07:28:48.253Z,101733.41
2023-01-10T07:31:16.429Z,101732.81
2023-01-10T07:33:43.164Z,101740.31
2023-01-10T07:36:09.903Z,101753.69
2023-01-10T07:38:37.839Z,101752.63
2023-01-10T07:41:05.283Z,101755.31
2023-01-10T07:43:32.175Z,101742.66
2023-01-10T07:46:04.388Z,101750.75
2023-01-10T07:48:31.132Z,101751.00
2023-01-10T07:50:59.827Z,101748.59
2023-01-10T07:53:27.908Z,101746.22
2023-01-10T07:55:54.870Z,101746.25
2023-01-10T07:58:21.277Z,101747.94
2023-01-10T08:00:50.307Z,101767.06
2023-01-10T08:03:17.698Z,101760.59
2023-01-10T08:05:44.776Z,101759.50
2023-01-10T08:08:12.941Z,101763.00
2023-01-10T08:10:40.448Z,101770.78
2023-01-10T08:13:17.736Z,101763.50
2023-01-10T08:15:47.271Z,101766.19
2023-01-10T08:18:13.982Z,101779.38
2023-01-10T08:20:41.287Z,101767.00
2023-01-10T08:23:07.842Z,101770.44
2023-01-10T08:25:34.385Z,101767.44
2023-01-10T08:28:00.824Z,101767.94
2023-01-10T08:30:27.397Z,101769.28
2023-01-10T08:32:53.865Z,101768.41
2023-01-10T08:35:20.490Z,101775.13
2023-01-10T08:37:46.968Z,101762.19
2023-01-10T08:40:13.803Z,101755.41
2023-01-10T08:42:40.313Z,101755.63
2023-01-10T08:45:07.379Z,101756.16
2023-01-10T08:47:37.351Z,101756.44
2023-01-10T08:50:07.177Z,101754.25
2023-01-10T08:52:34.885Z,101752.06
2023-01-10T08:55:01.372Z,101751.78
2023-01-10T08:57:27.871Z,101747.19
2023-01-10T08:59:54.322Z,101753.06
2023-01-10T09:02:20.928Z,101737.75
2023-01-10T09:04:47.513Z,101733.66
2023-01-10T09:07:13.967Z,101744.44
2023-01-10T09:09:40.400Z,101737.66
2023-01-10T09:12:27.004Z,101750.31
2023-01-10T09:14:53.578Z,101756.50
2023-01-10T09:17:20.118Z,101748.13
2023-01-10T09:19:46.649Z,101744.13
2023-01-10T09:22:13.131Z,101752.69
2023-01-10T09:24:39.567Z,101737.63
2023-01-10T09:27:06.034Z,101742.72
2023-01-10T09:29:32.561Z,101741.63
2023-01-10T09:31:59.033Z,101740.81
2023-01-10T09:34:25.487Z,101739.72
2023-01-10T09:36:53.772Z,101753.69
2023-01-10T09:39:21.448Z,101751.81
2023-01-10T09:41:59.850Z,101755.59
2023-01-10T09:44:53.950Z,101756.41
2023-01-10T09:47:39.007Z,101748.03
2023-01-10T09:50:43.164Z,101761.47
2023-01-10T09:53:14.728Z,101753.78
2023-01-10T09:55:42.973Z,101754.09
2023-01-10T09:58:15.994Z,101743.03
2023-01-10T10:00:51.095Z,101743.31
2023-01-10T10:03:32.917Z,101767.75
2023-01-10T10:06:11.144Z,101758.88
2023-01-10T10:08:40.473Z,101768.34
2023-01-10T10:11:25.652Z,101764.75
2023-01-10T10:14:16.946Z,101761.56
2023-01-10T10:17:11.359Z,101744.91
2023-01-10T10:19:43.839Z,101744.66
2023-01-10T10:22:22.521Z,101747.88
2023-01-10T10:25:10.735Z,101743.31
2023-01-10T10:27:56.302Z,101736.88
2023-01-10T10:30:29.770Z,101741.16
2023-01-10T10:33:24.814Z,101736.88
2023-01-10T10:35:59.901Z,101732.28
2023-01-10T10:38:30.086Z,101718.53
2023-01-10T10:40:58.815Z,101722.84
2023-01-10T10:43:32.095Z,101718.50
2023-01-10T10:46:05.310Z,101723.38
2023-01-10T10:48:41.590Z,101709.91
2023-01-10T10:51:38.916Z,101704.22
2023-01-10T10:54:07.489Z,101702.84
2023-01-10T10:56:35.438Z,101698.75
2023-01-10T10:59:02.017Z,101695.25
2023-01-10T11:01:28.704Z,101698.47
2023-01-10T11:03:57.307Z,101696.06
2023-01-10T11:06:26.978Z,101692.25
2023-01-10T11:08:57.288Z,101680.13
2023-01-10T11:11:34.328Z,101681.72
2023-01-10T11:14:04.172Z,101680.13
2023-01-10T11:16:37.339Z,101672.75
2023-01-10T11:19:17.520Z,101674.06
2023-01-10T11:21:54.194Z,101671.09
2023-01-10T11:24:25.275Z,101669.69
2023-01-10T11:26:52.119Z,101668.28
2023-01-10T11:29:21.842Z,101668.91
2023-01-10T11:31:50.626Z,101668.03
2023-01-10T11:34:20.624Z,101655.84
2023-01-10T11:36:55.538Z,101649.97
2023-01-10T11:39:22.044Z,101640.97
2023-01-10T11:41:49.391Z,101647.41
2023-01-10T11:44:25.105Z,101640.09
2023-01-10T11:46:58.192Z,101641.09
2023-01-10T11:49:39.015Z,101638.09
2023-01-10T11:52:26.926Z,101645.63
2023-01-10T11:54:58.342Z,101647.72
2023-01-10T11:57:28.329Z,101647.72
2023-01-10T12:00:06.992Z,101644.72
2023-01-10T12:02:52.615Z,101639.81
2023-01-10T12:05:22.137Z,101631.16
2023-01-10T12:07:59.533Z,101635.94
2023-01-10T12:10:28.636Z,101621.66
2023-01-10T12:13:00.500Z,101612.50
2023-01-10T12:15:30.501Z,101610.00
2023-01-10T12:18:03.478Z,101606.41
2023-01-10T12:20:34.791Z,101595.63
2023-01-10T12:23:07.854Z,101591.25
2023-01-10T12:25:37.644Z,101584.75
2023-01-10T12:28:04.724Z,101579.56
2023-01-10T12:30:43.628Z,101574.34
2023-01-10T12:33:31.077Z,101565.19
2023-01-10T12:36:22.949Z,101566.47
2023-01-10T12:39:03.756Z,101554.91
2023-01-10T12:42:00.984Z,101561.56
2023-01-10T12:44:39.556Z,101561.56
2023-01-10T12:47:30.524Z,101555.88
2023-01-10T12:49:59.888Z,101555.28
2023-01-10T12:52:32.554Z,101541.50
2023-01-10T12:55:00.285Z,101547.69
2023-01-10T12:57:51.622Z,101539.59
2023-01-10T13:00:24.310Z,101531.22
2023-01-10T13:02:57.706Z,101532.50
2023-01-10T13:05:27.219Z,101529.00
2023-01-10T13:08:04.743Z,101525.19
2023-01-10T13:10:31.881Z,101516.81
2023-01-10T13:13:16.488Z,101509.22
2023-01-10T13:15:53.719Z,101502.72
2023-01-10T13:18:27.081Z,101500.22
2023-01-10T13:21:13.709Z,101499.91
2023-01-10T13:23:48.213Z,101492.81
2023-01-10T13:26:14.738Z,101482.50
2023-01-10T13:28:55.008Z,101477.91
2023-01-10T13:31:35.292Z,101468.44
2023-01-10T13:34:12.263Z,101471.31
2023-01-10T13:37:00.563Z,101460.22
2023-01-10T13:39:45.964Z,101470.69
2023-01-10T13:42:47.399Z,101477.66
2023-01-10T13:45:15.131Z,101459.91
2023-01-10T13:47:43.304Z,101464.97
2023-01-10T13:50:25.471Z,101460.41
2023-01-10T13:53:15.420Z,101445.31
2023-01-10T13:55:53.912Z,101462.78
2023-01-10T13:58:42.182Z,101455.81
2023-01-10T14:01:46.237Z,101441.22
2023-01-10T14:04:21.602Z,101446.28
2023-01-10T14:06:56.248Z,101448.19
2023-01-10T14:09:22.710Z,101439.78
2023-01-10T14:11:59.163Z,101440.09
2023-01-10T14:14:31.028Z,101437.91
2023-01-10T14:17:32.314Z,101434.72
2023-01-10T14:20:04.224Z,101427.84
2023-01-10T14:22:36.628Z,101412.59
2023-01-10T14:25:08.167Z,101416.97
2023-01-10T14:27:46.296Z,101403.91
2023-01-10T14:30:21.156Z,101397.72
2023-01-10T14:32:51.332Z,101386.16
2023-01-10T14:35:21.811Z,101379.78
2023-01-10T14:37:57.636Z,101380.22
2023-01-10T14:40:42.182Z,101375.91
2023-01-10T14:43:22.842Z,101352.56
2023-01-10T14:46:11.563Z,101356.81
2023-01-10T14:48:46.483Z,101346.63
2023-01-10T14:51:31.942Z,101351.03
2023-01-10T14:54:12.849Z,101339.78
2023-01-10T14:56:43.921Z,101339.25
2023-01-10T14:59:27.254Z,101331.00
2023-01-10T15:01:57.648Z,101316.25
2023-01-10T15:04:28.080Z,101309.25
2023-01-10T15:07:11.993Z,101296.38
2023-01-10T15:09:38.965Z,101290.50
2023-01-10T15:12:09.616Z,101285.44
2023-01-10T15:14:37.495Z,101288.94
2023-01-10T15:17:06.574Z,101275.56
2023-01-10T15:19:36.305Z,101285.22
2023-01-10T15:22:04.144Z,101290.13
2023-01-10T15:24:33.321Z,101271.41
2023-01-10T15:27:05.386Z,101282.47
2023-01-10T15:29:33.867Z,101279.78
2023-01-10T15:32:15.225Z,101263.13
2023-01-10T15:34:42.326Z,101262.66
2023-01-10T15:37:21.444Z,101239.50
2023-01-10T15:39:48.424Z,101237.13
2023-01-10T15:42:15.523Z,101238.19
2023-01-10T15:44:45.107Z,101216.97
2023-01-10T15:47:50.136Z,101203.00
2023-01-10T15:50:22.037Z,101199.22
2023-01-10T15:52:54.386Z,101213.78
2023-01-10T15:55:39.052Z,101213.00
2023-01-10T15:58:15.694Z,101201.41
2023-01-10T16:00:51.171Z,101224.06
2023-01-10T16:03:21.780Z,101196.66
2023-01-10T16:05:58.716Z,101195.34
2023-01-10T16:08:27.966Z,101210.84
2023-01-10T16:10:57.623Z,101195.81
2023-01-10T16:13:27.842Z,101185.31
2023-01-10T16:15:55.947Z,101175.34
2023-01-10T16:18:22.892Z,101184.03
2023-01-10T16:20:52.318Z,101170.56
2023-01-10T16:23:33.009Z,101165.81
2023-01-10T16:26:01.580Z,101159.63
2023-01-10T16:28:35.874Z,101141.88
2023-01-10T16:31:06.414Z,101138.41
2023-01-10T16:33:33.595Z,101132.03
2023-01-10T16:36:00.231Z,101135.03
2023-01-10T16:38:28.419Z,101123.78
2023-01-10T16:41:00.639Z,101117.28
2023-01-10T16:43:29.209Z,101108.41
2023-01-10T16:46:02.147Z,101129.47
2023-01-10T16:48:30.591Z,101109.00
2023-01-10T16:51:28.368Z,101118.69
2023-01-10T16:53:55.216Z,101105.53
2023-01-10T16:56:25.868Z,101104.22
2023-01-10T16:58:54.527Z,101099.63
2023-01-10T17:01:24.576Z,101096.13
2023-01-10T17:03:52.123Z,101098.03
2023-01-10T17:06:19.056Z,101096.94
2023-01-10T17:08:45.864Z,101083.00
2023-01-10T17:11:22.806Z,101095.34
2023-01-10T17:13:49.467Z,101076.34
2023-01-10T17:16:19.245Z,101083.00
2023-01-10T17:18:46.584Z,101076.03
2023-01-10T17:21:18.760Z,101068.72
2023-01-10T17:23:45.960Z,101049.88
2023-01-10T17:26:14.782Z,101066.84
2023-01-10T17:28:41.313Z,101052.59
2023-01-10T17:31:08.908Z,101047.38
2023-01-10T17:33:35.534Z,101053.53
2023-01-10T17:36:02.507Z,101048.16
2023-01-10T17:38:29.724Z,101037.41
2023-01-10T17:41:01.916Z,101031.72
2023-01-10T17:43:30.431Z,101028.44
2023-01-10T17:46:00.564Z,101040.31
2023-01-10T17:48:27.105Z,101026.53
2023-01-10T17:50:59.769Z,101017.34
2023-01-10T17:53:26.701Z,101015.63
2023-01-10T17:55:54.096Z,101012.13
2023-01-10T17:58:21.478Z,100994.59
2023-01-10T18:00:48.821Z,100997.75
2023-01-10T18:03:16.293Z,101005.19
2023-01-10T18:05:56.689Z,101002.19
2023-01-10T18:08:24.407Z,101001.91
2023-01-10T18:10:51.163Z,101003.19
2023-01-10T18:13:20.410Z,100983.69
2023-01-10T18:15:49.368Z,100981.47
2023-01-10T18:18:16.782Z,100987.84
2023-01-10T18:20:44.729Z,100971.06
2023-01-10T18:23:22.229Z,100971.84
2023-01-10T18:26:02.966Z,100967.44
2023-01-10T18:28:40.955Z,100972.19
2023-01-10T18:31:17.727Z,100957.00
2023-01-10T18:33:45.785Z,100954.00
2023-01-10T18:36:17.613Z,100963.03
2023-01-10T18:38:45.675Z,100955.72
2023-01-10T18:41:13.706Z,100950.53
2023-01-10T18:43:40.268Z,100943.72
2023-01-10T18:46:12.855Z,100949.56
2023-01-10T18:48:40.084Z,100957.50
2023-01-10T18:51:08.967Z,100953.72
2023-01-10T18:53:35.692Z,100967.66
2023-01-10T18:56:05.180Z,100952.13
2023-01-10T18:58:34.551Z,100968.47
2023-01-10T19:01:09.662Z,100952.75
2023-01-10T19:03:36.603Z,100950.72
2023-01-10T19:06:05.536Z,100944.22
2023-01-10T19:08:32.430Z,100954.34
2023-01-10T19:11:15.696Z,100955.31
2023-01-10T19:13:47.087Z,100951.19
2023-01-10T19:16:19.749Z,100945.97
2023-01-10T19:18:51.682Z,100938.34
2023-01-10T19:21:18.910Z,100958.16
2023-01-10T19:23:51.070Z,100942.97
2023-01-10T19:26:18.418Z,100938.81
2023-01-10T19:28:45.737Z,100942.31
2023-01-10T19:31:20.327Z,100943.56
2023-01-10T19:33:48.049Z,100939.13
2023-01-10T19:36:15.951Z,100936.13
2023-01-10T19:38:42.973Z,100921.84
2023-01-10T19:41:09.841Z,100937.88
2023-01-10T19:43:36.695Z,100933.72
2023-01-10T19:46:11.034Z,100930.38
2023-01-10T19:48:38.398Z,100919.28
2023-01-10T19:51:10.202Z,100917.38
2023-01-10T19:53:39.072Z,100917.53
2023-01-10T19:56:09.729Z,100909.13
2023-01-10T19:58:38.049Z,100911.94
2023-01-10T20:01:13.209Z,100909.75
2023-01-10T20:03:42.102Z,100897.50
2023-01-10T20:06:16.879Z,100897.97
2023-01-10T20:08:44.628Z,100885.44
2023-01-10T20:11:11.155Z,100900.50
2023-01-10T20:13:41.991Z,100890.66
2023-01-10T20:16:08.704Z,100888.41
2023-01-10T20:18:35.237Z,100896.22
2023-01-10T20:21:06.646Z,100876.19
2023-01-10T20:23:34.498Z,100879.81
2023-01-10T20:26:06.581Z,100872.19
2023-01-10T20:28:34.214Z,100871.22
2023-01-10T20:31:01.041Z,100868.19
2023-01-10T20:33:27.827Z,100854.72
2023-01-10T20:35:59.023Z,100862.31
2023-01-10T20:38:27.345Z,100846.91
2023-01-10T20:41:07.749Z,100859.75
2023-01-10T20:43:34.596Z,100847.19
2023-01-10T20:46:10.897Z,100851.47
2023-01-10T20:48:38.653Z,100855.56
2023-01-10T20:51:05.712Z,100841.88
2023-01-10T20:53:32.655Z,100864.09
2023-01-10T20:56:07.459Z,100840.56
2023-01-10T20:58:35.085Z,100836.75
2023-01-10T21:01:02.044Z,100835.28
2023-01-10T21:03:28.623Z,100829.09
2023-01-10T21:05:55.872Z,100836.75
2023-01-10T21:08:22.805Z,100812.09
2023-01-10T21:10:50.545Z,100817.84
2023-01-10T21:13:17.870Z,100831.00
2023-01-10T21:15:46.676Z,100826.41
2023-01-10T21:18:14.960Z,100808.94
2023-01-10T21:20:47.095Z,100801.63
2023-01-10T21:23:14.434Z,100808.63
2023-01-10T21:25:41.049Z,100804.78
2023-01-10T21:28:09.789Z,100795.13
2023-01-10T21:30:37.400Z,100779.69
2023-01-10T21:33:03.991Z,100796.69
2023-01-10T21:35:30.490Z,100774.75
2023-01-10T21:37:57.560Z,100786.34
2023-01-10T21:40:24.959Z,100767.91
2023-01-10T21:42:52.588Z,100770.63
2023-01-10T21:45:21.208Z,100774.09
2023-01-10T21:47:50.872Z,100768.38
2023-01-10T21:50:21.398Z,100766.47
2023-01-10T21:52:48.811Z,100772.31
2023-01-10T21:55:16.559Z,100765.47
2023-01-10T21:57:43.083Z,100766.25
2023-01-10T22:00:10.294Z,100764.38
2023-01-10T22:02:36.888Z,100758.28
2023-01-10T22:05:03.586Z,100742.97
2023-01-10T22:07:30.076Z,100738.97
2023-01-10T22:09:56.557Z,100732.78
2023-01-10T22:12:24.392Z,100720.84
2023-01-10T22:14:51.139Z,100728.63
2023-01-10T22:17:17.831Z,100730.97
2023-01-10T22:19:44.771Z,100722.22
2023-01-10T22:22:11.621Z,100722.72
2023-01-10T22:24:38.952Z,100716.63
2023-01-10T22:27:05.515Z,100723.31
2023-01-10T22:29:32.186Z,100714.97
2023-01-10T22:31:58.816Z,100706.84
2023-01-10T22:34:25.525Z,100702.38
2023-01-10T22:36:52.066Z,100697.09
2023-01-10T22:39:19.178Z,100704.19
2023-01-10T22:41:45.632Z,100693.38
2023-01-10T22:44:18.619Z,100705.88
2023-01-10T22:46:45.922Z,100699.00
2023-01-10T22:49:12.597Z,100690.25
2023-01-10T22:51:39.093Z,100691.81
2023-01-10T22:54:05.652Z,100677.63
2023-01-10T22:56:32.316Z,100680.78
2023-01-10T22:58:59.063Z,100679.00
2023-01-10T23:01:26.239Z,100671.00
2023-01-10T23:03:52.958Z,100676.53
2023-01-10T23:06:20.247Z,100682.03
2023-01-10T23:08:46.909Z,100665.94
2023-01-10T23:11:16.469Z,100669.44
2023-01-10T23:13:43.216Z,100671.81
2023-01-10T23:16:14.577Z,100681.16
2023-01-10T23:18:41.314Z,100665.03
2023-01-10T23:21:08.399Z,100674.41
2023-01-10T23:23:35.377Z,100670.22
2023-01-10T23:26:04.452Z,100671.44
2023-01-10T23:28:39.549Z,100663.47
2023-01-10T23:31:07.262Z,100656.91
2023-01-10T23:33:34.303Z,100651.59
2023-01-10T23:36:01.002Z,100665.56
2023-01-10T23:38:27.860Z,100669.53
2023-01-10T23:40:54.618Z,100657.59
2023-01-10T23:43:21.539Z,100654.97
2023-01-10T23:45:48.258Z,100642.22
2023-01-10T23:48:15.771Z,100658.94
2023-01-10T23:50:42.325Z,100641.88
2023-01-10T23:53:09.255Z,100650.13
2023-01-10T23:55:35.915Z,100627.78
2023-01-10T23:58:02.588Z,100634.00
